Barstow Daggett Airport
KDAG : now visible

Airfield :











YOU CAN JOIN US ON...

 
LOGIN :

Register | Disclaimer

   EN    FR    IT 

 









Legend :    VFR   Marginal VFR   IFR   Intensive IFR   Very Intensive IFR
Visi :
Ceiling :
>= 8 km
>= 3000ft
5 to 8 km
1000 to 3000 ft
1500m to 5 km
500 to 1000 ft
800 to 1500m
200 to 500 ft
< 800m
< 200 ft
Symbols :   Thunderstorms  Fog  Heavy snow  Heavy precipitations  Wind > 20 kt






- Airport Elevation : 1930 ft


KDAG - Barstow Daggett

CURRENT METAR :
  • 192305Z AUTO 23017G26KT 10SM OVC110 27/M03 A2958 RMK AO2 PK WND 24026/2259 WSHFT 2248 T02671028

EXPIRED METARs :
  • 192250Z AUTO 23013G17KT 10SM BKN120 27/M03 A2959 RMK AO2 SLP003 T02671033
  • 192150Z AUTO 02009KT 10SM CLR 26/M05 A2962 RMK AO2 SLP012 T02611050
  • 192050Z AUTO 36005KT 10SM CLR 27/M05 A2964 RMK AO2 SLP021 T02671050 58044

TAF KDAG
Valid from the 19 at 18:00 until the 20 at 18:00 UTC


191727Z 1918/2018 26006KT P6SM BKN250
FM192300 21013G21KT P6SM SCT050 BKN100
FM200300 23012G20KT P6SM VCSH SCT050 OVC250
FM200900 25011KT P6SM SCT080 OVC250



MET'MAP, your aeronautical weather chart ! - Copyright ORBIFLY December 2007 - Disclaimer

ORBIFLY MET'MAP TEAM :

Programming & Development : Alexandra Zaïnal
Concept & Development : Baudouin d'Aumeries
Co-Development & Prog : Marc-Olivier Méhu
Technical & hardware support : Manuel Goepfert

Contact : metmap@orbifly.com




SOURCES & CREDITS :

   NOAA       Earth
Advisory